createdAt,value
2023-03-18T00:00:21.209Z,100701.78
2023-03-18T00:02:54.493Z,100706.90
2023-03-18T00:05:27.639Z,100702.55
2023-03-18T00:08:00.810Z,100704.86
2023-03-18T00:10:35.441Z,100694.75
2023-03-18T00:13:08.623Z,100701.66
2023-03-18T00:15:42.752Z,100708.42
2023-03-18T00:18:18.939Z,100703.46
2023-03-18T00:20:52.036Z,100702.55
2023-03-18T00:23:25.193Z,100704.98
2023-03-18T00:26:00.707Z,100700.63
2023-03-18T00:28:34.261Z,100707.53
2023-03-18T00:31:11.407Z,100717.63
2023-03-18T00:33:46.058Z,100720.19
2023-03-18T00:36:22.353Z,100714.80
2023-03-18T00:38:58.089Z,100713.92
2023-03-18T00:41:33.243Z,100714.67
2023-03-18T00:44:07.741Z,100717.11
2023-03-18T00:46:41.196Z,100713.39
2023-03-18T00:49:15.718Z,100715.95
2023-03-18T00:51:49.161Z,100716.58
2023-03-18T00:54:22.775Z,100718.76
2023-03-18T00:56:57.201Z,100720.91
2023-03-18T00:59:30.723Z,100726.52
2023-03-18T01:02:04.125Z,100731.38
2023-03-18T01:04:38.357Z,100728.55
2023-03-18T01:07:13.029Z,100722.27
2023-03-18T01:09:46.847Z,100732.36
2023-03-18T01:12:22.941Z,100728.52
2023-03-18T01:14:56.224Z,100735.00
2023-03-18T01:17:29.649Z,100730.15
2023-03-18T01:20:04.080Z,100740.73
2023-03-18T01:22:36.521Z,100737.89
2023-03-18T01:25:12.309Z,100750.41
2023-03-18T01:27:46.186Z,100748.34
2023-03-18T01:30:19.832Z,100747.93
2023-03-18T01:32:54.103Z,100749.31
2023-03-18T01:35:28.581Z,100747.25
2023-03-18T01:38:02.761Z,100756.28
2023-03-18T01:40:39.864Z,100755.14
2023-03-18T01:43:20.778Z,100758.95
2023-03-18T01:45:56.430Z,100754.30
2023-03-18T01:48:31.921Z,100759.77
2023-03-18T01:51:10.346Z,100758.59
2023-03-18T01:53:46.326Z,100765.23
2023-03-18T01:56:21.015Z,100756.39
2023-03-18T01:58:57.545Z,100757.77
2023-03-18T02:01:33.905Z,100765.91
2023-03-18T02:04:10.576Z,100765.64
2023-03-18T02:06:45.750Z,100775.55
2023-03-18T02:09:19.546Z,100770.18
2023-03-18T02:14:28.219Z,100781.00
2023-03-18T02:17:04.671Z,100784.30
2023-03-18T02:19:50.742Z,100785.97
2023-03-18T02:22:29.649Z,100749.78
2023-03-18T02:25:20.699Z,100750.66
2023-03-18T02:27:57.472Z,100761.48
2023-03-18T02:30:35.494Z,100757.12
2023-03-18T02:33:12.336Z,100759.42
2023-03-18T02:35:47.596Z,100768.60
2023-03-18T02:38:21.709Z,100736.44
2023-03-18T02:40:56.385Z,100765.75
2023-03-18T02:43:33.516Z,100775.06
2023-03-18T02:46:16.671Z,100774.94
2023-03-18T02:48:51.474Z,100774.77
2023-03-18T02:51:26.309Z,100776.30
2023-03-18T02:54:02.948Z,100773.63
2023-03-18T02:56:36.213Z,100780.34
2023-03-18T02:59:09.779Z,100771.81
2023-03-18T03:01:46.024Z,100779.47
2023-03-18T03:04:20.390Z,100783.81
2023-03-18T03:06:55.326Z,100780.22
2023-03-18T03:09:31.106Z,100784.70
2023-03-18T03:12:05.334Z,100791.47
2023-03-18T03:14:39.156Z,100797.31
2023-03-18T03:17:13.044Z,100790.41
2023-03-18T03:19:46.403Z,100789.53
2023-03-18T03:22:20.008Z,100792.96
2023-03-18T03:24:53.695Z,100799.86
2023-03-18T03:27:27.401Z,100798.81
2023-03-18T03:30:01.301Z,100799.73
2023-03-18T03:32:34.699Z,100798.06
2023-03-18T03:35:09.980Z,100798.81
2023-03-18T03:37:44.700Z,100798.81
2023-03-18T03:40:20.630Z,100804.83
2023-03-18T03:42:54.102Z,100808.27
2023-03-18T03:45:27.425Z,100806.46
2023-03-18T03:48:00.842Z,100811.42
2023-03-18T03:50:42.132Z,100810.55
2023-03-18T03:53:15.814Z,100814.11
2023-03-18T03:55:49.605Z,100808.12
2023-03-18T03:58:22.741Z,100815.91
2023-03-18T04:00:55.985Z,100811.86
2023-03-18T04:03:30.038Z,100816.18
2023-03-18T04:06:03.332Z,100818.28
2023-03-18T04:08:36.446Z,100821.85
2023-03-18T04:11:10.297Z,100817.05
2023-03-18T04:13:44.097Z,100817.32
2023-03-18T04:16:21.624Z,100814.91
2023-03-18T04:19:29.492Z,100816.09
2023-03-18T04:25:06.212Z,100815.95
2023-03-18T04:27:40.387Z,100815.12
2023-03-18T04:30:16.690Z,100832.36
2023-03-18T04:32:55.044Z,100769.14
2023-03-18T04:35:28.533Z,100830.51
2023-03-18T04:38:01.737Z,100835.12
2023-03-18T04:40:35.443Z,100833.76
2023-03-18T04:47:02.133Z,100836.25
2023-03-18T04:50:26.540Z,100838.19
2023-03-18T04:53:36.749Z,100836.81
2023-03-18T04:56:18.950Z,100838.88
2023-03-18T04:58:53.784Z,100838.26
2023-03-18T05:01:28.560Z,100851.55
2023-03-18T05:04:02.042Z,100845.20
2023-03-18T05:06:38.030Z,100850.73
2023-03-18T05:09:13.790Z,100852.17
2023-03-18T05:11:47.785Z,100846.23
2023-03-18T05:14:34.804Z,100855.89
2023-03-18T05:17:10.705Z,100854.14
2023-03-18T05:19:44.780Z,100857.23
2023-03-18T05:22:21.135Z,100862.73
2023-03-18T05:24:56.099Z,100864.29
2023-03-18T05:27:29.996Z,100864.20
2023-03-18T05:30:05.056Z,100865.91
2023-03-18T05:32:43.341Z,100867.34
2023-03-18T05:35:17.797Z,100872.07
2023-03-18T05:37:55.527Z,100865.81
2023-03-18T05:40:29.162Z,100876.58
2023-03-18T05:43:10.605Z,100869.45
2023-03-18T05:45:45.524Z,100871.11
2023-03-18T05:48:20.187Z,100879.44
2023-03-18T05:50:55.048Z,100875.89
2023-03-18T05:53:30.081Z,100880.86
2023-03-18T05:56:04.857Z,100880.87
2023-03-18T05:58:39.104Z,100877.43
2023-03-18T06:01:16.760Z,100879.08
2023-03-18T06:03:53.667Z,100880.11
2023-03-18T06:06:26.894Z,100873.58
2023-03-18T06:09:01.075Z,100879.95
2023-03-18T06:11:34.251Z,100872.36
2023-03-18T06:14:09.242Z,100881.94
2023-03-18T06:16:43.808Z,100888.80
2023-03-18T06:19:17.453Z,100893.52
2023-03-18T06:21:52.653Z,100891.75
2023-03-18T06:24:25.811Z,100876.62
2023-03-18T06:27:01.589Z,100890.48
2023-03-18T06:29:35.443Z,100881.25
2023-03-18T06:32:15.360Z,100872.91
2023-03-18T06:34:49.995Z,100884.69
2023-03-18T06:37:23.988Z,100880.93
2023-03-18T06:39:57.694Z,100881.23
2023-03-18T06:42:31.710Z,100873.52
2023-03-18T06:45:13.862Z,100881.25
2023-03-18T06:47:54.723Z,100879.61
2023-03-18T06:50:28.244Z,100867.80
2023-03-18T06:53:01.914Z,100875.30
2023-03-18T06:55:38.051Z,100874.97
2023-03-18T06:58:11.506Z,100889.86
2023-03-18T07:00:48.576Z,100886.50
2023-03-18T07:03:29.529Z,100881.75
2023-03-18T07:06:02.848Z,100885.95
2023-03-18T07:08:39.774Z,100880.09
2023-03-18T07:11:13.069Z,100880.16
2023-03-18T07:13:47.712Z,100878.53
2023-03-18T07:16:22.571Z,100884.37
2023-03-18T07:18:57.381Z,100877.42
2023-03-18T07:21:30.956Z,100880.19
2023-03-18T07:24:07.020Z,100879.41
2023-03-18T07:26:42.465Z,100876.77
2023-03-18T07:29:18.777Z,100875.70
2023-03-18T07:31:52.034Z,100878.28
2023-03-18T07:34:27.496Z,100882.09
2023-03-18T07:37:01.352Z,100874.34
2023-03-18T07:39:34.638Z,100870.02
2023-03-18T07:42:16.730Z,100871.69
2023-03-18T07:44:52.451Z,100880.23
2023-03-18T07:47:25.983Z,100865.94
2023-03-18T07:49:59.409Z,100876.66
2023-03-18T07:52:33.999Z,100878.19
2023-03-18T07:55:09.354Z,100866.34
2023-03-18T07:57:43.951Z,100873.34
2023-03-18T08:00:19.487Z,100867.45
2023-03-18T08:02:59.161Z,100863.55
2023-03-18T08:05:34.502Z,100863.27
2023-03-18T08:08:08.518Z,100862.90
2023-03-18T08:10:42.532Z,100863.36
2023-03-18T08:13:16.069Z,100863.73
2023-03-18T08:15:49.304Z,100863.83
2023-03-18T08:18:25.964Z,100855.01
2023-03-18T08:20:59.470Z,100860.33
2023-03-18T08:23:33.537Z,100852.39
2023-03-18T08:26:07.827Z,100866.48
2023-03-18T08:28:41.966Z,100858.52
2023-03-18T08:31:15.575Z,100866.50
2023-03-18T08:33:51.569Z,100874.43
2023-03-18T08:36:29.571Z,100862.11
2023-03-18T08:39:02.900Z,100871.63
2023-03-18T08:41:36.086Z,100867.24
2023-03-18T08:44:12.711Z,100854.11
2023-03-18T08:46:45.902Z,100862.01
2023-03-18T08:49:21.257Z,100864.66
2023-03-18T08:51:56.318Z,100846.05
2023-03-18T08:54:30.238Z,100853.27
2023-03-18T08:57:04.603Z,100850.59
2023-03-18T08:59:37.915Z,100852.32
2023-03-18T09:02:18.521Z,100857.38
2023-03-18T09:04:51.949Z,100850.36
2023-03-18T09:07:25.131Z,100848.38
2023-03-18T09:09:58.265Z,100841.34
2023-03-18T09:12:33.243Z,100850.16
2023-03-18T09:15:07.813Z,100839.77
2023-03-18T09:17:59.877Z,100844.50
2023-03-18T09:20:20.052Z,100835.77
2023-03-18T09:22:54.076Z,100835.38
2023-03-18T09:25:27.251Z,100832.84
2023-03-18T09:28:01.060Z,100828.50
2023-03-18T09:30:34.455Z,100828.13
2023-03-18T09:33:09.525Z,100832.83
2023-03-18T09:35:43.655Z,100829.50
2023-03-18T09:38:19.712Z,100826.16
2023-03-18T09:41:04.325Z,100806.25
2023-03-18T09:43:52.129Z,100824.71
2023-03-18T09:46:30.174Z,100829.84
2023-03-18T09:49:22.650Z,100816.84
2023-03-18T09:52:01.319Z,100815.28
2023-03-18T09:54:39.471Z,100816.10
2023-03-18T09:57:18.245Z,100820.84
2023-03-18T09:59:55.724Z,100814.32
2023-03-18T10:02:29.408Z,100812.05
2023-03-18T10:05:11.818Z,100800.84
2023-03-18T10:07:42.921Z,100799.86
2023-03-18T10:10:21.380Z,100797.52
2023-03-18T10:12:58.911Z,100799.12
2023-03-18T10:15:37.488Z,100790.77
2023-03-18T10:18:20.221Z,100792.94
2023-03-18T10:21:04.746Z,100785.98
2023-03-18T10:23:45.234Z,100788.53
2023-03-18T10:26:22.185Z,100788.81
2023-03-18T10:29:08.465Z,100781.75
2023-03-18T10:32:00.161Z,100790.81
2023-03-18T10:34:37.471Z,100785.92
2023-03-18T10:37:15.649Z,100785.37
2023-03-18T10:39:50.280Z,100773.25
2023-03-18T10:42:27.430Z,100779.05
2023-03-18T10:45:08.099Z,100772.65
2023-03-18T10:47:44.674Z,100773.89
2023-03-18T10:50:22.068Z,100773.75
2023-03-18T10:52:58.395Z,100770.73
2023-03-18T10:55:34.887Z,100758.10
2023-03-18T10:58:18.165Z,100765.16
2023-03-18T11:00:51.550Z,100765.16
2023-03-18T11:03:28.021Z,100756.94
2023-03-18T11:06:05.877Z,100755.72
2023-03-18T11:08:41.390Z,100768.44
2023-03-18T11:11:27.156Z,100761.03
2023-03-18T11:14:02.449Z,100752.50
2023-03-18T11:16:42.622Z,100752.64
2023-03-18T11:19:33.424Z,100752.34
2023-03-18T11:22:19.807Z,100751.98
2023-03-18T11:25:07.026Z,100749.33
2023-03-18T11:27:43.809Z,100752.81
2023-03-18T11:30:33.597Z,100749.89
2023-03-18T11:33:00.002Z,100755.37
2023-03-18T11:35:40.157Z,100752.28
2023-03-18T11:38:26.907Z,100736.26
2023-03-18T11:41:12.084Z,100745.16
2023-03-18T11:43:59.571Z,100741.86
2023-03-18T11:46:36.601Z,100740.33
2023-03-18T11:49:17.821Z,100732.08
2023-03-18T11:51:55.455Z,100732.09
2023-03-18T11:55:01.366Z,100724.25
2023-03-18T11:57:38.682Z,100730.86
2023-03-18T12:00:27.105Z,100710.79
2023-03-18T12:03:42.171Z,100729.98
2023-03-18T12:06:22.644Z,100736.64
2023-03-18T12:09:05.243Z,100726.25
2023-03-18T12:11:48.815Z,100729.22
2023-03-18T12:14:26.248Z,100720.17
2023-03-18T12:17:05.645Z,100712.02
2023-03-18T12:19:53.756Z,100715.41
2023-03-18T12:22:40.495Z,100715.05
2023-03-18T12:25:26.310Z,100714.69
2023-03-18T12:28:03.654Z,100710.02
2023-03-18T12:30:49.970Z,100708.58
2023-03-18T12:33:36.016Z,100700.80
2023-03-18T12:36:15.388Z,100703.48
2023-03-18T12:39:00.379Z,100694.13
2023-03-18T12:41:38.736Z,100688.16
2023-03-18T12:44:26.453Z,100686.69
2023-03-18T12:47:05.169Z,100678.41
2023-03-18T12:49:43.433Z,100676.88
2023-03-18T12:52:26.492Z,100668.97
2023-03-18T12:55:04.009Z,100672.71
2023-03-18T12:57:45.844Z,100674.47
2023-03-18T13:00:32.141Z,100671.03
2023-03-18T13:03:08.536Z,100666.40
2023-03-18T13:05:47.309Z,100666.34
2023-03-18T13:11:59.835Z,100667.11
2023-03-18T13:14:33.973Z,100658.94
2023-03-18T13:17:12.358Z,100665.06
2023-03-18T13:19:47.020Z,100664.19
2023-03-18T13:22:35.362Z,100651.94
2023-03-18T13:25:18.553Z,100662.05
2023-03-18T13:28:10.673Z,100660.41
2023-03-18T13:30:54.155Z,100663.50
2023-03-18T13:33:53.966Z,100653.69
2023-03-18T13:36:57.513Z,100645.25
2023-03-18T13:39:46.924Z,100638.95
2023-03-18T13:42:27.003Z,100641.75
2023-03-18T13:45:06.967Z,100641.92
2023-03-18T13:47:42.728Z,100628.84
2023-03-18T13:50:30.566Z,100624.13
2023-03-18T13:53:05.774Z,100631.32
2023-03-18T13:55:45.221Z,100631.91
2023-03-18T13:58:26.092Z,100633.77
2023-03-18T14:01:19.035Z,100628.02
2023-03-18T14:04:21.907Z,100619.70
2023-03-18T14:06:58.019Z,100626.12
2023-03-18T14:09:41.081Z,100623.35
2023-03-18T14:12:41.695Z,100631.36
2023-03-18T14:15:40.142Z,100620.69
2023-03-18T14:18:27.937Z,100621.20
2023-03-18T14:21:05.976Z,100625.52
2023-03-18T14:23:45.490Z,100627.05
2023-03-18T14:26:24.149Z,100628.69
2023-03-18T14:29:01.183Z,100627.97
2023-03-18T14:31:53.439Z,100621.09
2023-03-18T14:34:28.773Z,100618.98
2023-03-18T14:37:29.580Z,100623.87
2023-03-18T14:40:08.606Z,100624.66
2023-03-18T14:42:52.827Z,100616.18
2023-03-18T14:45:30.018Z,100622.19
2023-03-18T14:48:06.937Z,100619.25
2023-03-18T14:50:44.577Z,100613.95
2023-03-18T14:53:23.797Z,100612.54
2023-03-18T14:55:59.162Z,100614.80
2023-03-18T14:58:34.392Z,100612.56
2023-03-18T15:01:11.067Z,100614.72
2023-03-18T15:03:47.550Z,100611.55
2023-03-18T15:06:23.346Z,100614.11
2023-03-18T15:09:00.438Z,100615.32
2023-03-18T15:11:36.153Z,100619.63
2023-03-18T15:14:16.937Z,100620.30
2023-03-18T15:16:54.169Z,100613.77
2023-03-18T15:19:31.042Z,100605.95
2023-03-18T15:22:07.635Z,100611.42
2023-03-18T15:24:40.845Z,100616.43
2023-03-18T15:27:19.655Z,100603.70
2023-03-18T15:29:55.900Z,100608.49
2023-03-18T15:32:32.196Z,100604.92
2023-03-18T15:35:16.761Z,100609.02
2023-03-18T15:37:51.622Z,100599.11
2023-03-18T15:40:35.152Z,100604.42
2023-03-18T15:43:17.024Z,100601.06
2023-03-18T15:45:55.826Z,100600.47
2023-03-18T15:48:35.177Z,100600.08
2023-03-18T15:51:11.841Z,100592.31
2023-03-18T15:53:48.013Z,100594.86
2023-03-18T15:56:24.593Z,100597.23
2023-03-18T15:59:07.025Z,100599.02
2023-03-18T16:01:40.842Z,100594.58
2023-03-18T16:04:18.823Z,100600.45
2023-03-18T16:06:53.953Z,100598.73
2023-03-18T16:09:28.016Z,100597.05
2023-03-18T16:12:04.476Z,100600.58
2023-03-18T16:14:40.655Z,100599.58
2023-03-18T16:17:15.859Z,100603.11
2023-03-18T16:19:51.420Z,100596.98
2023-03-18T16:22:24.909Z,100599.48
2023-03-18T16:24:58.104Z,100602.86
2023-03-18T16:27:34.630Z,100606.11
2023-03-18T16:30:11.442Z,100604.82
2023-03-18T16:32:45.076Z,100595.19
2023-03-18T16:35:26.428Z,100596.58
2023-03-18T16:38:03.054Z,100591.62
2023-03-18T16:40:37.955Z,100593.72
2023-03-18T16:43:21.933Z,100576.63
2023-03-18T16:45:55.928Z,100592.31
2023-03-18T16:48:29.783Z,100598.05
2023-03-18T16:51:04.754Z,100588.17
2023-03-18T16:53:38.083Z,100582.63
2023-03-18T16:56:19.093Z,100582.92
2023-03-18T16:58:52.494Z,100589.44
2023-03-18T17:01:27.434Z,100587.34
2023-03-18T17:04:04.160Z,100586.97
2023-03-18T17:06:39.062Z,100591.48
2023-03-18T17:09:15.035Z,100592.63
2023-03-18T17:11:49.224Z,100592.82
2023-03-18T17:14:34.069Z,100586.20
2023-03-18T17:17:10.197Z,100592.58
2023-03-18T17:19:43.400Z,100584.26
2023-03-18T17:22:22.732Z,100595.80
2023-03-18T17:24:56.042Z,100591.36
2023-03-18T17:27:32.500Z,100582.64
2023-03-18T17:30:09.726Z,100585.70
2023-03-18T17:32:43.249Z,100579.55
2023-03-18T17:35:21.414Z,100579.55
2023-03-18T17:38:02.076Z,100584.23
2023-03-18T17:40:35.282Z,100588.09
2023-03-18T17:43:13.401Z,100583.38
2023-03-18T17:45:47.237Z,100577.79
2023-03-18T17:48:23.681Z,100586.74
2023-03-18T17:51:00.085Z,100586.12
2023-03-18T17:53:39.226Z,100588.02
2023-03-18T17:56:16.192Z,100580.47
2023-03-18T17:58:51.535Z,100579.92
2023-03-18T18:01:31.705Z,100578.68
2023-03-18T18:04:06.347Z,100575.66
2023-03-18T18:06:39.596Z,100581.20
2023-03-18T18:09:14.400Z,100583.49
2023-03-18T18:11:50.942Z,100582.25
2023-03-18T18:14:26.293Z,100581.08
2023-03-18T18:17:02.573Z,100588.28
2023-03-18T18:19:36.564Z,100589.78
2023-03-18T18:22:18.000Z,100591.02
2023-03-18T18:24:54.028Z,100582.12
2023-03-18T18:27:27.345Z,100582.53
2023-03-18T18:30:00.721Z,100585.34
2023-03-18T18:32:34.409Z,100583.09
2023-03-18T18:35:08.987Z,100585.11
2023-03-18T18:37:42.452Z,100577.34
2023-03-18T18:40:19.089Z,100578.77
2023-03-18T18:42:53.025Z,100583.47
2023-03-18T18:45:28.368Z,100580.17
2023-03-18T18:48:02.119Z,100577.49
2023-03-18T18:50:35.638Z,100583.10
2023-03-18T18:53:18.417Z,100580.53
2023-03-18T18:55:52.953Z,100581.02
2023-03-18T18:58:29.563Z,100576.56
2023-03-18T19:01:03.237Z,100576.56
2023-03-18T19:03:36.689Z,100578.12
2023-03-18T19:06:15.739Z,100577.16
2023-03-18T19:08:48.853Z,100565.25
2023-03-18T19:11:23.957Z,100565.41
2023-03-18T19:13:59.016Z,100564.21
2023-03-18T19:16:35.238Z,100571.98
2023-03-18T19:19:12.994Z,100565.53
2023-03-18T19:21:46.173Z,100560.98
2023-03-18T19:24:27.299Z,100545.23
2023-03-18T19:27:02.725Z,100551.83
2023-03-18T19:29:38.617Z,100547.37
2023-03-18T19:32:19.194Z,100546.84
2023-03-18T19:34:53.978Z,100545.63
2023-03-18T19:37:30.579Z,100546.00
2023-03-18T19:40:13.182Z,100534.72
2023-03-18T19:42:46.546Z,100542.22
2023-03-18T19:45:20.336Z,100527.39
2023-03-18T19:47:54.472Z,100528.51
2023-03-18T19:50:28.734Z,100529.32
2023-03-18T19:53:02.429Z,100530.88
2023-03-18T19:55:36.922Z,100525.53
2023-03-18T19:58:19.387Z,100526.31
2023-03-18T20:00:53.852Z,100519.73
2023-03-18T20:03:27.483Z,100518.75
2023-03-18T20:06:01.996Z,100517.97
2023-03-18T20:08:35.160Z,100511.52
2023-03-18T20:11:12.196Z,100513.84
2023-03-18T20:13:46.038Z,100510.16
2023-03-18T20:16:21.840Z,100515.30
2023-03-18T20:18:56.398Z,100515.87
2023-03-18T20:21:32.549Z,100507.05
2023-03-18T20:24:09.947Z,100499.72
2023-03-18T20:26:43.467Z,100503.83
2023-03-18T20:29:22.170Z,100499.48
2023-03-18T20:31:57.341Z,100505.17
2023-03-18T20:34:30.672Z,100501.52
2023-03-18T20:37:05.118Z,100505.75
2023-03-18T20:39:40.422Z,100501.28
2023-03-18T20:42:16.774Z,100501.08
2023-03-18T20:44:49.992Z,100506.88
2023-03-18T20:47:26.265Z,100500.83
2023-03-18T20:49:59.585Z,100513.56
2023-03-18T20:52:35.433Z,100505.86
2023-03-18T20:55:19.382Z,100498.84
2023-03-18T20:57:56.259Z,100494.27
2023-03-18T21:00:33.144Z,100501.19
2023-03-18T21:03:13.639Z,100503.52
2023-03-18T21:05:47.592Z,100499.30
2023-03-18T21:08:21.341Z,100498.38
2023-03-18T21:10:56.027Z,100498.38
2023-03-18T21:13:31.236Z,100491.25
2023-03-18T21:16:06.395Z,100487.70
2023-03-18T21:18:41.321Z,100482.23
2023-03-18T21:21:21.544Z,100478.78
2023-03-18T21:23:57.318Z,100476.12
2023-03-18T21:26:33.549Z,100477.66
2023-03-18T21:29:06.694Z,100477.77
2023-03-18T21:31:39.998Z,100474.43
2023-03-18T21:34:13.960Z,100467.41
2023-03-18T21:36:47.258Z,100470.84
2023-03-18T21:39:21.192Z,100465.30
2023-03-18T21:41:54.679Z,100466.64
2023-03-18T21:44:27.866Z,100468.95
2023-03-18T21:47:01.423Z,100472.75
2023-03-18T21:49:34.670Z,100468.29
2023-03-18T21:52:09.236Z,100476.53
2023-03-18T21:54:42.368Z,100468.84
2023-03-18T21:57:19.980Z,100471.20
2023-03-18T21:59:52.420Z,100462.59
2023-03-18T22:02:31.594Z,100469.62
2023-03-18T22:05:07.490Z,100467.51
2023-03-18T22:07:40.747Z,100463.71
2023-03-18T22:10:18.041Z,100470.27
2023-03-18T22:12:51.287Z,100463.36
2023-03-18T22:15:38.929Z,100474.05
2023-03-18T22:18:12.638Z,100471.38
2023-03-18T22:20:48.242Z,100472.92
2023-03-18T22:23:23.401Z,100466.16
2023-03-18T22:25:58.541Z,100466.01
2023-03-18T22:28:32.482Z,100461.69
2023-03-18T22:31:07.235Z,100455.33
2023-03-18T22:33:41.812Z,100454.31
2023-03-18T22:36:16.934Z,100451.75
2023-03-18T22:38:50.290Z,100451.28
2023-03-18T22:41:27.456Z,100453.52
2023-03-18T22:44:02.281Z,100454.17
2023-03-18T22:46:35.625Z,100447.27
2023-03-18T22:49:09.316Z,100449.72
2023-03-18T22:51:44.322Z,100453.92
2023-03-18T22:54:20.383Z,100450.37
2023-03-18T22:56:58.363Z,100448.80
2023-03-18T22:59:31.706Z,100445.25
2023-03-18T23:02:05.906Z,100443.47
2023-03-18T23:04:39.837Z,100445.25
2023-03-18T23:07:25.452Z,100436.80
2023-03-18T23:10:01.041Z,100437.79
2023-03-18T23:12:36.390Z,100435.23
2023-03-18T23:15:14.474Z,100429.34
2023-03-18T23:17:47.995Z,100428.57
2023-03-18T23:20:21.451Z,100424.98
2023-03-18T23:22:54.556Z,100418.08
2023-03-18T23:25:28.159Z,100428.31
2023-03-18T23:28:01.410Z,100416.17
2023-03-18T23:30:35.086Z,100419.40
2023-03-18T23:33:11.843Z,100413.29
2023-03-18T23:35:45.807Z,100414.06
2023-03-18T23:38:19.143Z,100408.06
2023-03-18T23:40:53.190Z,100412.27
2023-03-18T23:43:28.834Z,100402.69
2023-03-18T23:46:03.982Z,100405.14
2023-03-18T23:48:37.233Z,100403.13
2023-03-18T23:51:46.139Z,100404.67
2023-03-18T23:54:23.609Z,100400.46
2023-03-18T23:56:57.065Z,100396.00
2023-03-18T23:59:30.417Z,100395.09
